createdAt,value
2023-04-02T00:01:02.842Z,5.56
2023-04-02T00:03:44.977Z,5.55
2023-04-02T00:06:34.467Z,5.54
2023-04-02T00:09:17.223Z,5.53
2023-04-02T00:11:48.601Z,5.51
2023-04-02T00:14:33.469Z,5.48
2023-04-02T00:17:02.196Z,5.47
2023-04-02T00:19:41.500Z,5.47
2023-04-02T00:22:13.639Z,5.46
2023-04-02T00:24:40.205Z,5.39
2023-04-02T00:27:11.886Z,5.37
2023-04-02T00:29:56.559Z,5.37
2023-04-02T00:32:35.226Z,5.36
2023-04-02T00:35:02.605Z,5.35
2023-04-02T00:37:39.404Z,5.32
2023-04-02T00:40:19.502Z,5.30
2023-04-02T00:42:48.114Z,5.28
2023-04-02T00:45:28.734Z,5.27
2023-04-02T00:47:56.998Z,5.30
2023-04-02T00:50:32.777Z,5.29
2023-04-02T00:53:04.478Z,5.27
2023-04-02T00:55:41.746Z,5.26
2023-04-02T00:58:26.685Z,5.25
2023-04-02T01:00:54.109Z,5.21
2023-04-02T01:03:22.860Z,5.20
2023-04-02T01:06:10.841Z,5.20
2023-04-02T01:08:49.520Z,5.17
2023-04-02T01:11:52.778Z,5.18
2023-04-02T01:14:49.199Z,5.14
2023-04-02T01:17:43.228Z,5.12
2023-04-02T01:20:51.868Z,5.13
2023-04-02T01:23:26.217Z,5.07
2023-04-02T01:26:00.630Z,5.05
2023-04-02T01:28:57.177Z,5.06
2023-04-02T01:31:27.544Z,5.06
2023-04-02T01:33:55.098Z,5.04
2023-04-02T01:36:33.345Z,5.04
2023-04-02T01:39:22.614Z,5.01
2023-04-02T01:42:09.389Z,4.99
2023-04-02T01:44:46.734Z,4.98
2023-04-02T01:47:17.258Z,4.98
2023-04-02T01:49:44.699Z,4.95
2023-04-02T01:52:19.479Z,4.93
2023-04-02T01:54:47.776Z,4.91
2023-04-02T01:57:14.516Z,4.90
2023-04-02T01:59:41.221Z,4.90
2023-04-02T02:02:12.602Z,4.86
2023-04-02T02:04:40.209Z,4.85
2023-04-02T02:07:14.370Z,4.86
2023-04-02T02:09:42.273Z,4.90
2023-04-02T02:12:13.755Z,4.88
2023-04-02T02:14:46.282Z,4.84
2023-04-02T02:17:16.502Z,4.83
2023-04-02T02:19:56.008Z,4.80
2023-04-02T02:22:32.651Z,4.78
2023-04-02T02:25:03.030Z,4.77
2023-04-02T02:27:30.079Z,4.75
2023-04-02T02:30:11.194Z,4.73
2023-04-02T02:32:44.604Z,4.70
2023-04-02T02:35:18.440Z,4.63
2023-04-02T02:37:50.639Z,4.57
2023-04-02T02:40:25.018Z,4.52
2023-04-02T02:42:55.608Z,4.52
2023-04-02T02:45:26.960Z,4.49
2023-04-02T02:47:55.576Z,4.44
2023-04-02T02:50:28.158Z,4.43
2023-04-02T02:52:58.672Z,4.40
2023-04-02T02:55:41.917Z,4.35
2023-04-02T02:58:23.147Z,4.36
2023-04-02T03:00:49.963Z,4.32
2023-04-02T03:03:21.974Z,4.31
2023-04-02T03:06:03.062Z,4.23
2023-04-02T03:08:46.525Z,4.22
2023-04-02T03:11:29.200Z,4.20
2023-04-02T03:14:03.449Z,4.19
2023-04-02T03:16:36.589Z,4.16
2023-04-02T03:19:20.493Z,4.15
2023-04-02T03:22:02.965Z,4.11
2023-04-02T03:24:53.888Z,4.12
2023-04-02T03:27:25.002Z,4.09
2023-04-02T03:30:05.779Z,4.06
2023-04-02T03:32:40.355Z,4.05
2023-04-02T03:35:21.670Z,4.02
2023-04-02T03:38:04.726Z,4.02
2023-04-02T03:40:38.426Z,4.04
2023-04-02T03:43:15.274Z,4.05
2023-04-02T03:45:48.349Z,4.00
2023-04-02T03:48:40.377Z,3.96
2023-04-02T03:51:26.522Z,3.96
2023-04-02T03:53:54.083Z,3.95
2023-04-02T03:56:39.652Z,3.97
2023-04-02T03:59:13.847Z,3.98
2023-04-02T04:01:52.149Z,3.97
2023-04-02T04:04:20.939Z,3.96
2023-04-02T04:06:50.703Z,3.96
2023-04-02T04:09:31.746Z,3.95
2023-04-02T04:12:32.549Z,3.95
2023-04-02T04:15:20.346Z,3.92
2023-04-02T04:18:02.139Z,3.91
2023-04-02T04:20:41.878Z,3.89
2023-04-02T04:23:30.705Z,3.84
2023-04-02T04:26:19.914Z,3.77
2023-04-02T04:29:15.556Z,3.70
2023-04-02T04:31:47.409Z,3.68
2023-04-02T04:34:22.890Z,3.66
2023-04-02T04:36:57.584Z,3.66
2023-04-02T04:39:35.567Z,3.60
2023-04-02T04:42:07.110Z,3.54
2023-04-02T04:44:54.898Z,3.48
2023-04-02T04:47:30.965Z,3.43
2023-04-02T04:50:10.418Z,3.38
2023-04-02T04:52:39.439Z,3.36
2023-04-02T04:55:26.813Z,3.35
2023-04-02T04:58:23.161Z,3.33
2023-04-02T05:01:00.489Z,3.36
2023-04-02T05:03:40.049Z,3.33
2023-04-02T05:06:45.535Z,3.26
2023-04-02T05:09:20.425Z,3.17
2023-04-02T05:12:00.160Z,3.08
2023-04-02T05:14:38.615Z,2.97
2023-04-02T05:17:17.130Z,2.91
2023-04-02T05:19:59.674Z,2.83
2023-04-02T05:22:43.399Z,2.74
2023-04-02T05:25:19.539Z,2.68
2023-04-02T05:27:58.781Z,2.66
2023-04-02T05:30:25.223Z,2.60
2023-04-02T05:33:00.451Z,2.54
2023-04-02T05:35:36.587Z,2.49
2023-04-02T05:38:05.701Z,2.45
2023-04-02T05:40:39.927Z,2.42
2023-04-02T05:43:11.025Z,2.36
2023-04-02T05:45:41.218Z,2.29
2023-04-02T05:48:18.566Z,2.21
2023-04-02T05:50:51.572Z,2.22
2023-04-02T05:53:26.928Z,2.23
2023-04-02T05:56:01.097Z,2.30
2023-04-02T05:58:36.587Z,2.30
2023-04-02T06:01:28.174Z,2.28
2023-04-02T06:04:23.906Z,2.29
2023-04-02T06:06:58.240Z,2.21
2023-04-02T06:09:35.973Z,2.22
2023-04-02T06:12:16.473Z,2.20
2023-04-02T06:14:43.165Z,2.19
2023-04-02T06:17:15.745Z,2.20
2023-04-02T06:19:42.891Z,2.18
2023-04-02T06:22:21.405Z,2.23
2023-04-02T06:24:53.924Z,2.27
2023-04-02T06:27:24.468Z,2.32
2023-04-02T06:29:55.641Z,2.29
2023-04-02T06:32:26.949Z,2.28
2023-04-02T06:34:53.988Z,2.37
2023-04-02T06:37:20.914Z,2.42
2023-04-02T06:39:47.906Z,2.47
2023-04-02T06:42:21.840Z,2.55
2023-04-02T06:44:49.135Z,2.60
2023-04-02T06:47:47.057Z,2.55
2023-04-02T06:50:23.323Z,2.61
2023-04-02T06:52:51.768Z,2.69
2023-04-02T06:55:21.299Z,2.79
2023-04-02T06:57:48.636Z,2.72
2023-04-02T07:00:39.228Z,2.73
2023-04-02T07:03:08.680Z,2.71
2023-04-02T07:05:35.611Z,2.73
2023-04-02T07:08:02.237Z,2.61
2023-04-02T07:10:28.672Z,2.64
2023-04-02T07:12:55.314Z,2.65
2023-04-02T07:15:24.014Z,2.68
2023-04-02T07:17:52.163Z,2.71
2023-04-02T07:20:26.902Z,2.70
2023-04-02T07:22:53.811Z,2.76
2023-04-02T07:25:20.554Z,2.80
2023-04-02T07:27:49.709Z,2.85
2023-04-02T07:30:16.538Z,2.80
2023-04-02T07:32:43.121Z,2.78
2023-04-02T07:35:10.429Z,2.74
2023-04-02T07:37:38.342Z,2.70
2023-04-02T07:40:18.338Z,2.74
2023-04-02T07:42:45.380Z,2.76
2023-04-02T07:45:12.458Z,2.76
2023-04-02T07:47:39.051Z,2.73
2023-04-02T07:50:06.546Z,2.78
2023-04-02T07:52:33.017Z,2.85
2023-04-02T07:54:59.563Z,2.88
2023-04-02T07:57:26.058Z,2.79
2023-04-02T07:59:53.322Z,2.78
2023-04-02T08:02:23.787Z,2.74
2023-04-02T08:04:53.709Z,2.72
2023-04-02T08:07:21.977Z,2.77
2023-04-02T08:09:48.444Z,2.81
2023-04-02T08:12:15.857Z,2.86
2023-04-02T08:14:42.308Z,2.92
2023-04-02T08:17:08.799Z,2.99
2023-04-02T08:19:41.531Z,2.90
2023-04-02T08:22:18.397Z,2.87
2023-04-02T08:24:44.932Z,2.83
2023-04-02T08:27:14.543Z,2.94
2023-04-02T08:29:41.271Z,3.01
2023-04-02T08:32:11.495Z,3.02
2023-04-02T08:34:37.954Z,3.10
2023-04-02T08:37:04.418Z,3.12
2023-04-02T08:39:33.108Z,3.25
2023-04-02T08:42:14.645Z,3.34
2023-04-02T08:45:13.758Z,3.40
2023-04-02T08:47:52.117Z,3.53
2023-04-02T08:50:48.294Z,3.57
2023-04-02T08:53:28.864Z,3.65
2023-04-02T08:56:25.251Z,3.67
2023-04-02T08:58:56.376Z,3.62
2023-04-02T09:01:43.822Z,3.52
2023-04-02T09:04:16.714Z,3.52
2023-04-02T09:06:44.000Z,3.68
2023-04-02T09:09:14.110Z,3.69
2023-04-02T09:12:04.066Z,3.65
2023-04-02T09:14:43.640Z,3.68
2023-04-02T09:17:19.157Z,3.68
2023-04-02T09:19:50.762Z,3.77
2023-04-02T09:22:26.459Z,4.02
2023-04-02T09:24:54.454Z,4.27
2023-04-02T09:27:23.808Z,4.33
2023-04-02T09:29:56.927Z,4.39
2023-04-02T09:32:33.969Z,4.52
2023-04-02T09:35:25.335Z,4.64
2023-04-02T09:38:31.454Z,4.74
2023-04-02T09:41:02.220Z,4.63
2023-04-02T09:43:34.504Z,4.80
2023-04-02T09:46:04.116Z,5.22
2023-04-02T09:48:37.856Z,5.96
2023-04-02T09:51:16.390Z,6.12
2023-04-02T09:53:47.841Z,6.38
2023-04-02T09:56:23.339Z,6.56
2023-04-02T09:59:13.304Z,6.58
2023-04-02T10:01:46.651Z,6.29
2023-04-02T10:04:45.046Z,6.39
2023-04-02T10:07:30.614Z,6.36
2023-04-02T10:10:18.211Z,6.30
2023-04-02T10:12:50.974Z,6.42
2023-04-02T10:15:25.744Z,6.67
2023-04-02T10:18:06.953Z,6.73
2023-04-02T10:20:48.629Z,6.62
2023-04-02T10:23:19.069Z,6.76
2023-04-02T10:25:57.060Z,7.07
2023-04-02T10:28:38.298Z,7.15
2023-04-02T10:31:25.655Z,7.09
2023-04-02T10:34:00.802Z,7.08
2023-04-02T10:37:21.004Z,7.13
2023-04-02T10:39:57.710Z,7.25
2023-04-02T10:42:42.034Z,7.29
2023-04-02T10:45:19.832Z,7.14
2023-04-02T10:47:53.836Z,7.19
2023-04-02T10:50:35.945Z,7.11
2023-04-02T10:53:08.104Z,7.27
2023-04-02T10:55:43.269Z,7.40
2023-04-02T10:58:25.135Z,7.53
2023-04-02T11:00:58.496Z,7.50
2023-04-02T11:03:27.949Z,7.58
2023-04-02T11:05:57.753Z,7.75
2023-04-02T11:08:46.540Z,8.04
2023-04-02T11:11:27.312Z,8.24
2023-04-02T11:14:15.496Z,8.11
2023-04-02T11:16:44.756Z,8.03
2023-04-02T11:19:14.609Z,8.04
2023-04-02T11:21:57.329Z,7.99
2023-04-02T11:24:35.018Z,8.23
2023-04-02T11:27:07.806Z,8.27
2023-04-02T11:29:38.236Z,8.30
2023-04-02T11:32:13.778Z,8.33
2023-04-02T11:35:03.046Z,8.45
2023-04-02T11:37:42.669Z,8.43
2023-04-02T11:40:12.270Z,8.52
2023-04-02T11:42:44.600Z,8.49
2023-04-02T11:45:21.067Z,8.57
2023-04-02T11:48:00.688Z,8.63
2023-04-02T11:50:30.102Z,8.77
2023-04-02T11:53:02.123Z,8.86
2023-04-02T11:55:35.974Z,8.72
2023-04-02T11:58:30.536Z,8.75
2023-04-02T12:01:07.947Z,8.90
2023-04-02T12:04:02.243Z,9.08
2023-04-02T12:06:59.927Z,9.17
2023-04-02T12:09:36.751Z,9.10
2023-04-02T12:12:18.018Z,9.23
2023-04-02T12:14:47.719Z,9.28
2023-04-02T12:17:35.071Z,9.40
2023-04-02T12:20:10.467Z,9.42
2023-04-02T12:22:47.459Z,9.50
2023-04-02T12:25:39.888Z,9.67
2023-04-02T12:28:09.464Z,9.63
2023-04-02T12:30:37.387Z,9.62
2023-04-02T12:33:16.467Z,9.79
2023-04-02T12:35:44.094Z,9.72
2023-04-02T12:38:24.675Z,9.77
2023-04-02T12:40:53.089Z,9.75
2023-04-02T12:43:25.005Z,9.72
2023-04-02T12:45:58.002Z,9.91
2023-04-02T12:48:26.141Z,10.09
2023-04-02T12:50:53.893Z,10.14
2023-04-02T12:53:22.910Z,10.05
2023-04-02T12:55:52.143Z,10.00
2023-04-02T12:58:28.108Z,10.05
2023-04-02T13:01:15.910Z,9.88
2023-04-02T13:03:42.523Z,9.99
2023-04-02T13:06:24.450Z,10.04
2023-04-02T13:08:51.326Z,10.04
2023-04-02T13:11:18.066Z,10.13
2023-04-02T13:13:47.325Z,10.15
2023-04-02T13:16:19.907Z,10.13
2023-04-02T13:18:48.726Z,10.06
2023-04-02T13:21:21.352Z,10.18
2023-04-02T13:23:47.916Z,10.22
2023-04-02T13:26:18.968Z,10.18
2023-04-02T13:29:14.805Z,10.15
2023-04-02T13:31:41.529Z,10.43
2023-04-02T13:34:08.048Z,10.45
2023-04-02T13:36:34.874Z,10.27
2023-04-02T13:39:01.362Z,10.33
2023-04-02T13:41:31.430Z,10.35
2023-04-02T13:44:01.430Z,10.49
2023-04-02T13:46:34.209Z,10.24
2023-04-02T13:49:01.184Z,10.27
2023-04-02T13:51:36.312Z,10.32
2023-04-02T13:54:05.084Z,10.26
2023-04-02T13:56:32.239Z,10.26
2023-04-02T13:58:58.949Z,10.29
2023-04-02T14:01:26.113Z,10.23
2023-04-02T14:03:54.934Z,10.27
2023-04-02T14:06:45.734Z,10.26
2023-04-02T14:09:30.507Z,10.25
2023-04-02T14:12:22.662Z,10.47
2023-04-02T14:15:17.114Z,10.63
2023-04-02T14:17:59.974Z,10.62
2023-04-02T14:20:38.433Z,10.49
2023-04-02T14:23:47.573Z,10.50
2023-04-02T14:26:39.614Z,10.37
2023-04-02T14:29:17.251Z,10.41
2023-04-02T14:31:49.617Z,10.47
2023-04-02T14:34:34.643Z,10.51
2023-04-02T14:37:18.368Z,10.36
2023-04-02T14:39:58.252Z,10.31
2023-04-02T14:42:35.083Z,10.31
2023-04-02T14:45:22.760Z,10.36
2023-04-02T14:48:00.749Z,10.26
2023-04-02T14:50:35.230Z,10.23
2023-04-02T14:53:12.373Z,10.13
2023-04-02T14:55:43.667Z,10.14
2023-04-02T14:58:21.138Z,10.08
2023-04-02T15:01:01.929Z,9.97
2023-04-02T15:03:41.141Z,9.91
2023-04-02T15:06:14.942Z,9.90
2023-04-02T15:08:55.184Z,9.87
2023-04-02T15:11:41.101Z,9.89
2023-04-02T15:14:19.294Z,9.81
2023-04-02T15:16:45.894Z,9.73
2023-04-02T15:19:15.557Z,9.66
2023-04-02T15:22:06.231Z,9.67
2023-04-02T15:25:04.718Z,9.56
2023-04-02T15:27:49.443Z,9.47
2023-04-02T15:30:25.161Z,9.43
2023-04-02T15:32:55.137Z,9.40
2023-04-02T15:35:55.120Z,9.31
2023-04-02T15:38:31.000Z,9.21
2023-04-02T15:41:09.502Z,9.20
2023-04-02T15:43:56.629Z,9.14
2023-04-02T15:47:06.510Z,9.08
2023-04-02T15:49:46.750Z,9.07
2023-04-02T15:52:32.279Z,9.09
2023-04-02T15:55:34.544Z,9.09
2023-04-02T15:58:37.993Z,9.10
2023-04-02T16:01:41.903Z,9.04
2023-04-02T16:04:33.103Z,8.99
2023-04-02T16:07:27.157Z,8.92
2023-04-02T16:10:15.513Z,8.93
2023-04-02T16:12:42.376Z,8.91
2023-04-02T16:15:34.609Z,8.95
2023-04-02T16:18:07.569Z,8.95
2023-04-02T16:20:41.712Z,8.95
2023-04-02T16:23:14.258Z,8.92
2023-04-02T16:26:18.480Z,8.94
2023-04-02T16:29:06.924Z,8.89
2023-04-02T16:32:05.596Z,8.83
2023-04-02T16:35:32.560Z,8.78
2023-04-02T16:38:30.544Z,8.76
2023-04-02T16:41:13.008Z,8.72
2023-04-02T16:43:54.093Z,8.70
2023-04-02T16:46:39.587Z,8.65
2023-04-02T16:49:30.614Z,8.63
2023-04-02T16:52:28.209Z,8.62
2023-04-02T16:55:24.482Z,8.57
2023-04-02T16:58:22.982Z,8.57
2023-04-02T17:00:52.578Z,8.51
2023-04-02T17:03:43.493Z,8.46
2023-04-02T17:06:25.188Z,8.38
2023-04-02T17:09:08.146Z,8.34
2023-04-02T17:11:47.680Z,8.31
2023-04-02T17:14:22.833Z,8.26
2023-04-02T17:16:52.574Z,8.25
2023-04-02T17:19:20.790Z,8.22
2023-04-02T17:21:50.274Z,8.14
2023-04-02T17:24:35.430Z,8.12
2023-04-02T17:27:16.893Z,8.08
2023-04-02T17:29:47.279Z,8.03
2023-04-02T17:32:22.718Z,8.01
2023-04-02T17:34:49.252Z,7.97
2023-04-02T17:37:26.246Z,7.92
2023-04-02T17:40:09.675Z,7.89
2023-04-02T17:43:02.457Z,7.83
2023-04-02T17:45:37.617Z,7.77
2023-04-02T17:48:28.704Z,7.69
2023-04-02T17:51:09.590Z,7.64
2023-04-02T17:54:01.142Z,7.58
2023-04-02T17:56:43.987Z,7.54
2023-04-02T17:59:32.268Z,7.46
2023-04-02T18:02:19.813Z,7.40
2023-04-02T18:05:07.697Z,7.34
2023-04-02T18:07:40.300Z,7.29
2023-04-02T18:10:48.423Z,7.20
2023-04-02T18:13:36.717Z,7.11
2023-04-02T18:16:24.433Z,7.09
2023-04-02T18:19:09.192Z,7.02
2023-04-02T18:22:02.175Z,6.95
2023-04-02T18:24:41.263Z,6.88
2023-04-02T18:27:42.277Z,6.82
2023-04-02T18:30:24.050Z,6.76
2023-04-02T18:33:09.137Z,6.71
2023-04-02T18:36:13.476Z,6.64
2023-04-02T18:38:58.988Z,6.56
2023-04-02T18:41:43.093Z,6.52
2023-04-02T18:44:30.953Z,6.46
2023-04-02T18:47:10.422Z,6.39
2023-04-02T18:49:51.825Z,6.33
2023-04-02T18:52:18.752Z,6.29
2023-04-02T18:54:49.349Z,6.24
2023-04-02T18:57:27.973Z,6.21
2023-04-02T19:00:01.929Z,6.14
2023-04-02T19:02:42.902Z,6.11
2023-04-02T19:05:51.713Z,6.07
2023-04-02T19:08:28.130Z,6.02
2023-04-02T19:10:59.374Z,5.98
2023-04-02T19:13:26.041Z,5.95
2023-04-02T19:16:35.520Z,5.90
2023-04-02T19:19:21.864Z,5.88
2023-04-02T19:22:08.638Z,5.83
2023-04-02T19:33:59.315Z,5.67
2023-04-02T19:36:48.304Z,5.59
2023-04-02T19:39:57.851Z,5.55
2023-04-02T19:42:43.904Z,5.50
2023-04-02T19:45:35.616Z,5.45
2023-04-02T19:48:11.298Z,5.43
2023-04-02T19:50:38.076Z,5.42
2023-04-02T19:55:31.571Z,5.38
2023-04-02T19:58:12.618Z,5.37
2023-04-02T20:01:22.337Z,5.36
2023-04-02T20:03:49.395Z,5.33
2023-04-02T20:06:17.868Z,5.32
2023-04-02T20:08:45.420Z,5.27
2023-04-02T20:11:15.517Z,5.24
2023-04-02T20:13:42.068Z,5.17
2023-04-02T20:16:08.578Z,5.15
2023-04-02T20:18:37.131Z,5.10
2023-04-02T20:21:05.693Z,5.08
2023-04-02T20:23:33.419Z,5.03
2023-04-02T20:26:00.505Z,4.99
2023-04-02T20:28:29.616Z,4.96
2023-04-02T20:31:15.161Z,4.91
2023-04-02T20:33:42.539Z,4.88
2023-04-02T20:36:12.883Z,4.82
2023-04-02T20:38:53.328Z,4.77
2023-04-02T20:41:33.206Z,4.75
2023-04-02T20:44:05.378Z,4.69
2023-04-02T20:46:36.974Z,4.64
2023-04-02T20:49:04.845Z,4.63
2023-04-02T20:51:37.758Z,4.59
2023-04-02T20:54:05.295Z,4.58
2023-04-02T20:56:36.865Z,4.54
2023-04-02T21:01:50.554Z,4.43
2023-04-02T21:04:17.425Z,4.38
2023-04-02T21:06:48.002Z,4.36
2023-04-02T21:09:38.515Z,4.31
2023-04-02T21:12:07.690Z,4.28
2023-04-02T21:14:38.771Z,4.24
2023-04-02T21:17:07.280Z,4.20
2023-04-02T21:19:36.029Z,4.15
2023-04-02T21:22:05.084Z,4.11
2023-04-02T21:24:31.720Z,4.09
2023-04-02T21:26:58.334Z,4.06
2023-04-02T21:29:28.064Z,4.04
2023-04-02T21:31:54.795Z,4.01
2023-04-02T21:34:21.404Z,3.97
2023-04-02T21:36:48.460Z,3.96
2023-04-02T21:39:21.225Z,3.93
2023-04-02T21:41:53.071Z,3.89
2023-04-02T21:44:21.601Z,3.84
2023-04-02T21:46:49.366Z,3.79
2023-04-02T21:49:20.099Z,3.77
2023-04-02T21:51:47.408Z,3.73
2023-04-02T21:54:14.096Z,3.73
2023-04-02T21:56:43.222Z,3.70
2023-04-02T21:59:12.942Z,3.66
2023-04-02T22:01:42.342Z,3.64
2023-04-02T22:04:15.649Z,3.59
2023-04-02T22:06:43.638Z,3.55
2023-04-02T22:09:16.926Z,3.52
2023-04-02T22:11:48.798Z,3.49
2023-04-02T22:14:15.831Z,3.44
2023-04-02T22:16:43.127Z,3.38
2023-04-02T22:19:13.733Z,3.34
2023-04-02T22:21:41.400Z,3.31
2023-04-02T22:24:11.000Z,3.29
2023-04-02T22:26:38.222Z,3.27
2023-04-02T22:29:05.046Z,3.23
2023-04-02T22:31:33.500Z,3.18
2023-04-02T22:34:01.130Z,3.14
2023-04-02T22:36:29.163Z,3.10
2023-04-02T22:38:57.064Z,3.06
2023-04-02T22:41:27.377Z,3.03
2023-04-02T22:43:56.385Z,2.99
2023-04-02T22:46:23.551Z,2.93
2023-04-02T22:48:50.475Z,2.89
2023-04-02T22:51:20.002Z,2.87
2023-04-02T22:53:48.812Z,2.83
2023-04-02T22:56:18.414Z,2.82
2023-04-02T22:58:46.007Z,2.80
2023-04-02T23:01:21.388Z,2.76
2023-04-02T23:03:48.358Z,2.70
2023-04-02T23:06:18.368Z,2.69
2023-04-02T23:08:46.073Z,2.66
2023-04-02T23:11:22.637Z,2.62
2023-04-02T23:13:51.365Z,2.58
2023-04-02T23:16:18.556Z,2.55
2023-04-02T23:18:48.672Z,2.54
2023-04-02T23:21:16.740Z,2.50
2023-04-02T23:23:43.318Z,2.50
2023-04-02T23:26:11.298Z,2.46
2023-04-02T23:28:39.765Z,2.44
2023-04-02T23:31:08.682Z,2.43
2023-04-02T23:33:35.200Z,2.39
2023-04-02T23:36:09.617Z,2.41
2023-04-02T23:38:36.181Z,2.35
2023-04-02T23:41:02.839Z,2.33
2023-04-02T23:43:29.351Z,2.29
2023-04-02T23:45:55.874Z,2.27
2023-04-02T23:48:22.446Z,2.24
2023-04-02T23:50:48.983Z,2.23
2023-04-02T23:53:17.473Z,2.20
2023-04-02T23:55:44.120Z,2.19
2023-04-02T23:58:10.635Z,2.17
